Frakes, Kentucky
Current Conditions -  °F | °C
As of 8:55 AM on Friday 24 Oct 2014 (Local Time) from K1A6 Reporting Station
Moderate Fog Moderate Fog  
Wind Chill: 42°   Ceiling: 200
Heat Index: 42°   Visibility: 0.5mi
Dew Point: 42°   Wind: 0mph
Humidity: 100%   Direction: NA
Pressure: 30.15"   Gusts: NA
Location:  36.64°N, 83.93°W
Report Text: K1A6 241255Z AUTO 00000KT 1/2SM FG OVC002 05/05 A3015 RMK AO2 T00530053
Loading
Personal Weather Stations






























Interactive Weather Map
Tropical Storm Tracking
New forecast layout! Learn more

10-Day Weather Forecast

Advertisements
Track Severe Weather on mobile